Time;durP1;ratioP1;P1;durP2;ratioP2;P2;SDS_P1;SDS_P2;PMS_P1;PMS_P2;Temp;Humidity;BMP_temperature;BMP_pressure;BME280_temperature;BME280_humidity;BME280_pressure;Samples;Min_cycle;Max_cycle;Signal;HPM_P1;HPM_P2
2022/04/27 00:01:37;;;;;;;19.20;18.30;;;;;;;-141.02;100.00;84251.00;5114179;28;20193;-80
2022/04/27 00:04:05;;;;;;;18.38;17.50;;;;;;;-141.02;100.00;84324.84;5113875;28;20224;-79
2022/04/27 00:06:32;;;;;;;19.02;18.13;;;;;;;-141.02;100.00;84274.31;5114164;28;20201;-84
2022/04/27 00:08:59;;;;;;;19.33;18.42;;;;;;;-141.02;100.00;84289.84;5114393;28;20199;-82
2022/04/27 00:11:27;;;;;;;19.85;18.85;;;;;;;-141.02;100.00;84309.28;5114621;28;20323;-83
2022/04/27 00:13:54;;;;;;;18.48;17.58;;;;;;;-141.02;100.00;84235.44;5114016;28;20300;-78
2022/04/27 00:16:21;;;;;;;18.00;17.20;;;;;;;-141.02;100.00;84303.47;5113820;28;20297;-82
2022/04/27 00:18:48;;;;;;;19.08;18.17;;;;;;;-141.02;100.00;84305.41;5114301;28;20219;-80
2022/04/27 00:21:15;;;;;;;19.88;18.88;;;;;;;-141.02;100.00;84309.28;5114337;28;20276;-79
2022/04/27 00:23:42;;;;;;;18.40;17.50;;;;;;;-141.02;100.00;84313.16;5113721;28;20327;-82
2022/04/27 00:26:09;;;;;;;18.10;17.20;;;;;;;-141.02;100.00;84299.56;5113532;28;20203;-83
2022/04/27 00:28:38;;;;;;;18.52;17.63;;;;;;;-141.02;100.00;84293.75;5113597;28;20283;-83
2022/04/27 00:31:04;;;;;;;19.73;18.73;;;;;;;-141.02;100.00;84319.00;5114328;28;20219;-81
2022/04/27 00:33:32;;;;;;;18.95;18.02;;;;;;;-141.02;100.00;84324.84;5113773;28;20204;-86
2022/04/27 00:35:59;;;;;;;18.73;17.83;;;;;;;-141.02;100.00;84342.31;5113631;28;20193;-81
2022/04/27 00:38:26;;;;;;;19.15;18.25;;;;;;;-141.02;100.00;84324.84;5113784;28;20228;-84
2022/04/27 00:40:53;;;;;;;18.80;17.90;;;;;;;-141.02;100.00;84334.56;5113386;28;20280;-85
2022/04/27 00:43:37;;;;;;;19.20;18.20;;;;;;;-141.02;100.00;84058.63;5113806;28;20367;-85
2022/04/27 00:46:04;;;;;;;18.63;17.73;;;;;;;-141.02;100.00;85016.72;5114113;28;20250;-80
2022/04/27 00:48:31;;;;;;;18.73;17.83;;;;;;;-141.02;100.00;84192.69;5114004;28;20232;-84
2022/04/27 00:51:02;;;;;;;18.20;17.30;;;;;;;-141.02;100.00;84355.94;5114072;28;20192;-85
2022/04/27 00:53:29;;;;;;;18.98;17.98;;;;;;;-141.02;100.00;84406.44;5114192;28;20224;-82
2022/04/27 00:55:57;;;;;;;18.92;17.92;;;;;;;-141.02;100.00;84418.13;5113621;28;20698;-82
2022/04/27 00:58:25;;;;;;;19.15;18.15;;;;;;;-141.02;100.00;84367.59;5114114;28;20239;-82
2022/04/27 01:00:54;;;;;;;18.25;17.35;;;;;;;-141.02;100.00;84243.22;5113976;28;20200;-80
2022/04/27 01:03:22;;;;;;;18.13;17.23;;;;;;;-141.02;100.00;84264.59;5113770;28;20320;-77
2022/04/27 01:05:49;;;;;;;17.60;16.80;;;;;;;-141.02;100.00;84406.44;5114099;28;20731;-81
2022/04/27 01:08:17;;;;;;;18.70;17.80;;;;;;;-141.02;100.00;84414.22;5113723;28;20219;-75
2022/04/27 01:10:45;;;;;;;17.55;16.75;;;;;;;-141.02;100.00;84412.28;5112763;28;20573;-73
2022/04/27 01:13:12;;;;;;;17.95;17.05;;;;;;;-141.02;100.00;84443.38;5112551;28;20671;-80
2022/04/27 01:15:40;;;;;;;17.88;17.08;;;;;;;-141.02;100.00;84427.81;5112931;28;20196;-81
2022/04/27 01:18:09;;;;;;;17.58;16.77;;;;;;;-141.02;100.00;84390.91;5112682;28;20590;-81
2022/04/27 01:20:40;;;;;;;17.27;16.48;;;;;;;-141.02;100.00;84379.25;5112907;28;20569;-84
2022/04/27 01:23:07;;;;;;;17.95;17.05;;;;;;;-141.02;100.00;84371.47;5112766;28;20262;-78
2022/04/27 01:25:49;;;;;;;17.98;17.08;;;;;;;-141.02;100.00;84418.13;5112886;28;20227;-78
2022/04/27 01:28:18;;;;;;;16.92;16.13;;;;;;;-141.02;100.00;84441.44;5112579;28;20200;-83
2022/04/27 01:30:46;;;;;;;17.58;16.77;;;;;;;-141.02;100.00;84216.00;5112410;28;20189;-83
2022/04/27 01:33:14;;;;;;;18.02;17.13;;;;;;;-141.02;100.00;84437.53;5112433;28;20197;-77
2022/04/27 01:35:42;;;;;;;17.38;16.58;;;;;;;-141.02;100.00;84499.72;5112715;28;20199;-82
2022/04/27 01:38:09;;;;;;;17.15;16.35;;;;;;;-141.02;100.00;84449.19;5112901;28;20189;-80
2022/04/27 01:40:37;;;;;;;16.65;15.95;;;;;;;-141.02;100.00;84449.19;5112352;28;20686;-79
2022/04/27 01:43:04;;;;;;;15.90;15.20;;;;;;;-141.02;100.00;84482.25;5112066;28;20311;-82
2022/04/27 01:45:31;;;;;;;17.17;16.38;;;;;;;-141.02;100.00;84503.63;5112600;28;20256;-79
2022/04/27 01:47:58;;;;;;;17.52;16.73;;;;;;;-141.02;100.00;84546.38;5112253;28;20283;-82
2022/04/27 01:50:25;;;;;;;18.00;17.10;;;;;;;-141.02;100.00;84486.13;5112632;28;20197;-79
2022/04/27 01:55:38;;;;;;;17.55;16.75;;;;;;;-141.02;100.00;84548.31;5112585;28;20184;-80
2022/04/27 01:58:05;;;;;;;18.10;17.20;;;;;;;-141.02;100.00;84480.31;5112708;28;20224;-78
2022/04/27 02:00:33;;;;;;;18.48;17.48;;;;;;;-141.02;100.00;84488.06;5112418;28;20193;-82
2022/04/27 02:03:00;;;;;;;17.42;16.63;;;;;;;-141.02;100.00;84513.34;5111786;28;20613;-80
2022/04/27 02:05:27;;;;;;;17.00;16.20;;;;;;;-141.02;100.00;84519.16;5112495;28;20193;-81
2022/04/27 02:07:56;;;;;;;17.13;16.33;;;;;;;-141.02;100.00;84538.59;5112072;28;20200;-83
2022/04/27 02:10:23;;;;;;;17.48;16.67;;;;;;;-141.02;100.00;84573.59;5112393;28;20284;-80
2022/04/27 02:12:50;;;;;;;17.20;16.40;;;;;;;-141.02;100.00;84594.97;5114103;28;20567;-81
2022/04/27 02:15:17;;;;;;;16.88;16.08;;;;;;;-141.02;100.00;84589.13;5115581;27;20250;-81
2022/04/27 02:17:44;;;;;;;16.60;15.85;;;;;;;-141.02;100.00;84594.97;5116430;28;20197;-79
2022/04/27 02:20:12;;;;;;;15.82;15.13;;;;;;;-141.02;100.00;84655.19;5115448;28;20633;-83
2022/04/27 02:22:40;;;;;;;16.90;16.10;;;;;;;-141.02;100.00;84686.31;5115732;28;20253;-81
2022/04/27 02:25:09;;;;;;;16.88;16.08;;;;;;;-141.02;100.00;84736.84;5115706;28;20222;-81
2022/04/27 02:27:36;;;;;;;16.80;16.00;;;;;;;-141.02;100.00;84709.63;5115673;28;20258;-80
2022/04/27 02:30:04;;;;;;;16.80;16.00;;;;;;;-141.02;100.00;84507.50;5115328;28;20685;-82
2022/04/27 02:32:31;;;;;;;17.15;16.35;;;;;;;-141.02;100.00;84721.28;5115690;28;20242;-80
2022/04/27 02:34:58;;;;;;;16.60;15.80;;;;;;;-141.02;100.00;84736.84;5115191;28;20697;-79
2022/04/27 02:37:25;;;;;;;17.33;16.42;;;;;;;-141.02;100.00;84756.25;5115423;28;20244;-82
2022/04/27 02:39:52;;;;;;;16.40;15.60;;;;;;;-141.02;100.00;84810.69;5115489;28;20249;-80
2022/04/27 02:42:22;;;;;;;16.95;16.15;;;;;;;-141.02;100.00;84874.81;5115015;28;20553;-80
2022/04/27 02:44:49;;;;;;;16.00;15.30;;;;;;;-141.02;100.00;84915.63;5115356;28;20220;-81
2022/04/27 02:47:16;;;;;;;16.10;15.40;;;;;;;-141.02;100.00;85065.31;5115288;28;20240;-82
2022/04/27 02:52:27;;;;;;;15.52;14.82;;;;;;;-141.02;100.00;85485.16;5115435;28;20185;-78
2022/04/27 02:54:54;;;;;;;14.63;14.02;;;;;;;-141.02;100.00;85860.38;5115898;28;20652;-81
2022/04/27 02:57:23;;;;;;;14.25;13.65;;;;;;;-141.02;100.00;86023.66;5114755;28;20629;-78
2022/04/27 02:59:50;;;;;;;15.27;14.57;;;;;;;-141.02;100.00;86163.66;5114942;27;20791;-78
2022/04/27 03:02:17;;;;;;;14.30;13.70;;;;;;;-141.02;100.00;86292.00;5114828;27;20229;-78
2022/04/27 03:04:44;;;;;;;15.50;14.80;;;;;;;-141.02;100.00;86535.03;5114458;28;20702;-81
2022/04/27 03:07:11;;;;;;;14.82;14.13;;;;;;;-141.02;100.00;86715.91;5114890;28;20231;-82
2022/04/27 03:09:38;;;;;;;14.88;14.18;;;;;;;-141.02;100.00;86809.25;5114880;28;20231;-79
2022/04/27 03:12:06;;;;;;;13.93;13.32;;;;;;;-141.02;100.00;86867.56;5114451;28;20239;-81
2022/04/27 03:14:35;;;;;;;13.90;13.30;;;;;;;-141.02;100.00;87190.41;5114754;27;20258;-80
2022/04/27 03:17:02;;;;;;;14.40;13.80;;;;;;;-141.02;100.00;87558.03;5114392;28;20193;-80
2022/04/27 03:19:29;;;;;;;14.50;13.90;;;;;;;-141.02;100.00;87793.38;5114393;28;20240;-82
2022/04/27 03:21:56;;;;;;;13.90;13.30;;;;;;;-141.02;100.00;87941.22;5114595;28;20205;-81
2022/04/27 03:24:23;;;;;;;14.43;13.82;;;;;;;-141.02;100.00;87999.59;5113846;28;20722;-79
2022/04/27 03:26:50;;;;;;;14.18;13.57;;;;;;;-141.02;100.00;88161.06;5114539;28;20225;-81
2022/04/27 03:29:17;;;;;;;13.75;13.18;;;;;;;-141.02;100.00;88357.53;5114461;28;20679;-78
2022/04/27 03:31:45;;;;;;;14.18;13.57;;;;;;;-141.02;100.00;88554.06;5114438;28;20318;-79
2022/04/27 03:34:12;;;;;;;13.47;12.97;;;;;;;-141.02;100.00;88713.59;5114072;28;20679;-79
2022/04/27 03:36:39;;;;;;;13.60;13.10;;;;;;;-141.02;100.00;88843.97;5114382;28;20193;-78
2022/04/27 03:39:06;;;;;;;13.43;12.93;;;;;;;-141.02;100.00;89093.03;5114192;28;20193;-79
2022/04/27 03:41:33;;;;;;;13.05;12.55;;;;;;;-141.02;100.00;89311.00;5114261;28;20224;-78
2022/04/27 03:44:00;;;;;;;12.70;12.20;;;;;;;-141.02;100.00;89353.81;5113801;28;20769;-79
2022/04/27 03:46:27;;;;;;;12.80;12.30;;;;;;;-141.02;100.00;89525.06;5114103;27;20189;-77
2022/04/27 03:48:56;;;;;;;12.10;11.70;;;;;;;-141.02;100.00;89614.59;5114114;28;20229;-80
2022/04/27 03:51:23;;;;;;;12.10;11.70;;;;;;;-141.02;100.00;89737.22;5114088;28;20232;-80
2022/04/27 03:53:50;;;;;;;11.90;11.50;;;;;;;-141.02;100.00;89735.28;5113669;28;20201;-79
2022/04/27 03:56:17;;;;;;;12.10;11.70;;;;;;;-141.02;100.00;89540.63;5113992;28;20201;-79
2022/04/27 03:58:44;;;;;;;12.32;11.93;;;;;;;-141.02;100.00;89110.56;5113890;28;20579;-80
2022/04/27 04:01:11;;;;;;;13.57;13.07;;;;;;;-141.02;100.00;88536.53;5113824;27;20197;-80
2022/04/27 04:03:38;;;;;;;14.30;13.65;;;;;;;-141.02;100.00;87781.72;5113540;28;20271;-78
2022/04/27 04:06:07;;;;;;;15.13;14.40;;;;;;;-141.02;100.00;87025.09;5113632;28;20568;-81
2022/04/27 04:08:34;;;;;;;17.40;16.40;;;;;;;-141.02;100.00;86533.09;5113338;28;20661;-80
2022/04/27 04:11:01;;;;;;;18.55;17.45;;;;;;;-141.02;100.00;86237.53;5113649;28;20224;-78
2022/04/27 04:13:28;;;;;;;20.60;19.30;;;;;;;-141.02;100.00;85975.06;5113333;28;20224;-81
2022/04/27 04:15:55;;;;;;;20.42;19.02;;;;;;;-141.02;100.00;85730.09;5113192;28;20735;-80
2022/04/27 04:18:22;;;;;;;21.40;20.00;;;;;;;-141.02;100.00;85413.25;5113264;28;20249;-79
2022/04/27 04:20:49;;;;;;;21.27;19.88;;;;;;;-141.02;100.00;85207.19;5113192;28;20193;-81
2022/04/27 04:23:17;;;;;;;20.42;19.23;;;;;;;-141.02;100.00;85108.06;5113332;27;20293;-80
2022/04/27 04:28:32;;;;;;;19.55;18.45;;;;;;;-141.02;100.00;84861.22;5113760;28;20188;-79
2022/04/27 04:31:00;;;;;;;20.08;18.88;;;;;;;-141.02;100.00;84808.75;5113072;28;20250;-81
2022/04/27 04:33:28;;;;;;;20.10;19.00;;;;;;;-141.02;100.00;84620.22;5113569;28;20254;-80
2022/04/27 04:35:55;;;;;;;19.70;18.60;;;;;;;-141.02;100.00;84515.28;5112277;28;20206;-79
2022/04/27 04:38:24;;;;;;;19.27;18.27;;;;;;;-141.02;100.00;84526.94;5113163;28;20193;-81
2022/04/27 04:40:52;;;;;;;20.15;19.05;;;;;;;-141.02;100.00;84425.88;5112862;28;20648;-81
2022/04/27 04:43:19;;;;;;;20.30;19.20;;;;;;;-141.02;100.00;84453.09;5112753;28;20316;-80
2022/04/27 04:45:46;;;;;;;20.00;19.05;;;;;;;-141.02;100.00;84396.72;5112761;28;20285;-81
2022/04/27 04:48:14;;;;;;;19.52;18.63;;;;;;;-141.02;100.00;84332.59;5113079;28;20189;-81
2022/04/27 04:50:41;;;;;;;20.42;19.48;;;;;;;-141.02;100.00;85557.09;5112674;28;20200;-81
2022/04/27 04:53:08;;;;;;;20.30;19.30;;;;;;;-141.02;100.00;84010.03;5112976;28;20233;-80
2022/04/27 04:55:36;;;;;;;19.60;18.70;;;;;;;-141.02;100.00;83922.59;5112872;28;20280;-81
2022/04/27 04:58:04;;;;;;;17.50;16.70;;;;;;;-141.02;100.00;83936.19;5112934;28;20246;-80
2022/04/27 05:00:31;;;;;;;19.02;18.23;;;;;;;-141.02;100.00;83901.22;5112533;28;20193;-81
2022/04/27 05:02:58;;;;;;;20.60;19.65;;;;;;;-141.02;100.00;83947.84;5112675;28;20272;-79
2022/04/27 05:05:25;;;;;;;21.05;20.05;;;;;;;-141.02;100.00;83942.03;5112741;28;20221;-79
2022/04/27 05:07:52;;;;;;;18.88;17.77;;;;;;;-141.02;100.00;83998.38;5111504;28;20196;-81
2022/04/27 05:10:19;;;;;;;17.50;16.50;;;;;;;-141.02;100.00;84037.25;5112769;28;20194;-79
2022/04/27 05:12:48;;;;;;;17.83;16.90;;;;;;;-141.02;100.00;83895.41;5112728;28;20201;-79
2022/04/27 05:15:15;;;;;;;17.65;16.65;;;;;;;-141.02;100.00;84048.91;5113008;28;20193;-80
2022/04/27 05:17:42;;;;;;;18.30;17.20;;;;;;;-141.02;100.00;84091.66;5112682;28;20197;-82
2022/04/27 05:20:10;;;;;;;15.18;14.48;;;;;;;-141.02;100.00;84074.16;5112677;28;20802;-80
2022/04/27 05:22:39;;;;;;;16.77;16.08;;;;;;;-141.02;100.00;84060.56;5112469;28;20284;-78
2022/04/27 05:25:08;;;;;;;15.73;14.93;;;;;;;-141.02;100.00;84122.75;5112551;28;20229;-80
2022/04/27 05:27:36;;;;;;;15.60;14.85;;;;;;;-141.02;100.00;83901.22;5113135;28;20200;-77
2022/04/27 05:32:50;;;;;;;19.10;18.40;;;;;;;-141.02;100.00;84111.06;5112969;28;20185;-78
2022/04/27 05:35:17;;;;;;;18.65;17.90;;;;;;;-141.02;100.00;84107.19;5112238;28;20689;-79
2022/04/27 05:37:44;;;;;;;17.95;17.35;;;;;;;-141.02;100.00;84173.25;5112811;28;20253;-80
2022/04/27 05:40:12;;;;;;;18.20;17.60;;;;;;;-141.02;100.00;84157.72;5112722;28;20282;-77
2022/04/27 05:42:39;;;;;;;16.15;15.45;;;;;;;-141.02;100.00;84134.41;5112546;28;20270;-79
2022/04/27 05:45:08;;;;;;;15.85;15.25;;;;;;;-141.02;100.00;84194.63;5112159;28;20260;-78
2022/04/27 05:47:36;;;;;;;19.98;19.17;;;;;;;-141.02;100.00;84182.97;5115729;28;20238;-77
2022/04/27 05:50:05;;;;;;;17.10;16.30;;;;;;;-141.02;100.00;85677.63;5116447;28;20193;-77
2022/04/27 05:52:32;;;;;;;16.50;15.80;;;;;;;-141.02;100.00;84138.28;5116055;28;20203;-76
2022/04/27 05:55:00;;;;;;;16.27;15.57;;;;;;;-141.02;100.00;84140.22;5116274;28;20240;-78
2022/04/27 05:57:27;;;;;;;16.45;15.75;;;;;;;-141.02;100.00;84179.09;5116627;28;20193;-81
2022/04/27 05:59:54;;;;;;;16.20;15.50;;;;;;;-141.02;100.00;84165.50;5116548;28;20197;-79
2022/04/27 06:02:23;;;;;;;16.10;15.40;;;;;;;-141.02;100.00;84227.66;5115908;28;20229;-82
2022/04/27 06:04:50;;;;;;;15.93;15.23;;;;;;;-141.02;100.00;84111.06;5115697;28;20791;-77
2022/04/27 06:07:17;;;;;;;16.80;16.00;;;;;;;-141.02;100.00;84173.25;5116139;28;20732;-81
2022/04/27 06:09:44;;;;;;;16.02;15.32;;;;;;;-141.02;100.00;84130.50;5115729;28;20193;-79
2022/04/27 06:12:11;;;;;;;16.52;15.73;;;;;;;-141.02;100.00;84089.69;5115887;28;20724;-79
2022/04/27 06:14:38;;;;;;;16.88;16.08;;;;;;;-141.02;100.00;84066.38;5115629;28;20267;-81
2022/04/27 06:17:05;;;;;;;17.92;17.08;;;;;;;-141.02;100.00;84008.09;5115515;28;20629;-80
2022/04/27 06:19:34;;;;;;;17.30;16.40;;;;;;;-141.02;100.00;84017.81;5115850;28;20221;-81
2022/04/27 06:22:01;;;;;;;16.75;15.95;;;;;;;-141.02;100.00;83998.38;5115450;28;20227;-80
2022/04/27 06:24:29;;;;;;;16.45;15.65;;;;;;;-141.02;100.00;84043.06;5115401;28;20888;-80
2022/04/27 06:26:56;;;;;;;17.10;16.30;;;;;;;-141.02;100.00;83996.44;5116388;28;20200;-77
2022/04/27 06:29:23;;;;;;;18.25;17.35;;;;;;;-141.02;100.00;83971.16;5115707;28;20203;-77
2022/04/27 06:31:50;;;;;;;17.30;16.40;;;;;;;-141.02;100.00;83994.50;5115980;28;20697;-81
2022/04/27 06:34:17;;;;;;;17.02;16.13;;;;;;;-141.02;100.00;83986.72;5115843;28;20258;-81
2022/04/27 06:36:45;;;;;;;16.13;15.43;;;;;;;-141.02;100.00;83975.06;5115592;28;20337;-76
2022/04/27 06:39:14;;;;;;;15.68;14.98;;;;;;;-141.02;100.00;84058.63;5115825;28;20197;-80
2022/04/27 06:41:43;;;;;;;16.80;16.00;;;;;;;-141.02;100.00;83994.50;5115673;28;20204;-79
2022/04/27 06:44:10;;;;;;;16.98;16.10;;;;;;;-141.02;100.00;83975.06;5115025;27;20216;-77
2022/04/27 06:46:37;;;;;;;17.88;16.98;;;;;;;-141.02;100.00;83996.44;5114945;28;20602;-78
2022/04/27 06:49:04;;;;;;;17.58;16.67;;;;;;;-141.02;100.00;83912.88;5114953;28;20643;-79
2022/04/27 06:51:31;;;;;;;17.13;16.25;;;;;;;-141.02;100.00;83893.44;5114914;28;20651;-78
2022/04/27 06:53:59;;;;;;;17.90;17.00;;;;;;;-141.02;100.00;83924.53;5114927;28;20193;-79
2022/04/27 06:56:27;;;;;;;18.30;17.30;;;;;;;-141.02;100.00;83823.50;5115927;28;20225;-75
2022/04/27 06:58:54;;;;;;;17.42;16.52;;;;;;;-141.02;100.00;83839.03;5114078;28;20197;-78
2022/04/27 07:01:21;;;;;;;17.58;16.67;;;;;;;-141.02;100.00;83800.19;5115056;27;20193;-77
2022/04/27 07:03:53;;;;;;;18.10;17.10;;;;;;;-141.02;100.00;83753.56;5114813;28;20686;-78
2022/04/27 07:06:20;;;;;;;17.50;16.60;;;;;;;-141.02;100.00;83806.00;5115375;28;20276;-79
2022/04/27 07:08:47;;;;;;;17.75;16.77;;;;;;;-141.02;100.00;83784.66;5114909;28;20193;-82
2022/04/27 07:11:16;;;;;;;18.35;17.35;;;;;;;-141.02;99.38;83714.69;5114948;28;20189;-79
2022/04/27 07:13:43;;;;;;;17.98;16.98;;;;;;;-141.02;95.76;83666.13;5114875;28;20275;-77
2022/04/27 07:16:10;;;;;;;18.17;17.23;;;;;;;-141.02;93.92;83638.91;5115159;28;20232;-77
2022/04/27 07:18:37;;;;;;;18.33;17.33;;;;;;;-141.02;99.23;83652.53;5114736;28;20280;-78
2022/04/27 07:21:08;;;;;;;18.48;17.48;;;;;;;-141.02;92.51;83574.81;5114935;28;20197;-79
2022/04/27 07:23:35;;;;;;;18.60;17.60;;;;;;;-141.02;93.46;83551.50;5114792;28;20193;-81
2022/04/27 07:26:02;;;;;;;18.45;17.40;;;;;;;-141.02;87.51;83446.59;5114145;28;20265;-78
2022/04/27 07:28:30;;;;;;;18.42;17.50;;;;;;;-141.02;92.00;83532.06;5114626;28;20201;-80
2022/04/27 07:30:57;;;;;;;19.40;18.38;;;;;;;-141.02;89.09;83479.63;5114398;28;20280;-75
2022/04/27 07:33:25;;;;;;;18.75;17.75;;;;;;;-141.02;78.83;83131.88;5114774;28;20249;-80
2022/04/27 07:35:52;;;;;;;19.67;18.60;;;;;;;-141.02;72.57;83295.03;5114179;28;20197;-78
2022/04/27 07:38:19;;;;;;;19.05;18.02;;;;;;;-141.02;80.08;83310.59;5114026;28;20723;-80
2022/04/27 07:40:46;;;;;;;18.60;17.60;;;;;;;-141.02;74.66;83050.28;5114678;28;20262;-80
2022/04/27 07:43:14;;;;;;;19.50;18.40;;;;;;;-141.02;71.72;83166.84;5114496;28;20288;-80
2022/04/27 07:45:44;;;;;;;19.23;18.13;;;;;;;-141.02;77.79;83197.91;5113870;28;20257;-79
2022/04/27 07:48:11;;;;;;;19.13;18.13;;;;;;;-141.02;70.56;83131.88;5116035;28;20622;-77
2022/04/27 07:50:39;;;;;;;19.20;18.20;;;;;;;-141.02;66.43;83061.94;5114630;28;20670;-76
2022/04/27 07:53:06;;;;;;;18.88;17.88;;;;;;;-141.02;68.89;83083.31;5114526;28;20234;-76
2022/04/27 07:55:33;;;;;;;19.20;18.10;;;;;;;-141.02;72.19;83071.66;5114024;28;20254;-79
2022/04/27 07:58:00;;;;;;;19.55;18.48;;;;;;;-141.02;69.56;83054.16;5113914;28;20193;-76
2022/04/27 08:00:29;;;;;;;18.67;17.67;;;;;;;-141.02;73.06;83046.41;5113665;28;20203;-74
2022/04/27 08:02:58;;;;;;;19.05;18.05;;;;;;;-141.02;65.43;82966.75;5114326;28;20322;-78
2022/04/27 08:05:26;;;;;;;19.23;18.23;;;;;;;-141.02;66.32;82972.56;5113789;28;20225;-78
2022/04/27 08:07:53;;;;;;;19.60;18.50;;;;;;;-141.02;65.61;82953.16;5113543;28;20189;-79
2022/04/27 08:10:21;;;;;;;19.33;18.33;;;;;;;-141.02;71.10;82984.22;5112631;28;20192;-79
2022/04/27 08:12:49;;;;;;;19.20;18.20;;;;;;;-141.02;63.75;82871.56;5113509;28;20193;-73
2022/04/27 08:15:17;;;;;;;19.65;18.65;;;;;;;-141.02;71.05;82964.81;5113862;28;20201;-80
2022/04/27 08:17:55;;;;;;;19.70;18.70;;;;;;;-141.02;71.99;82964.81;5113280;28;20229;-81
2022/04/27 08:23:10;;;;;;;20.00;19.00;;;;;;;-141.02;63.94;82795.81;5114209;28;20656;-81
2022/04/27 08:25:38;;;;;;;20.13;19.13;;;;;;;-141.02;71.17;82873.50;5113519;28;20229;-83
2022/04/27 08:28:07;;;;;;;19.63;18.63;;;;;;;-141.02;65.55;82774.44;5113027;28;20615;-82
2022/04/27 08:30:35;;;;;;;20.20;19.20;;;;;;;-141.02;64.00;82743.38;5113537;28;20201;-82
2022/04/27 08:33:02;;;;;;;20.55;19.45;;;;;;;-141.02;69.72;82807.47;5113202;28;20203;-83
2022/04/27 08:35:31;;;;;;;20.80;19.70;;;;;;;-141.02;66.75;82786.09;5113258;28;20280;-74
2022/04/27 08:37:58;;;;;;;19.95;18.95;;;;;;;-141.02;69.79;82832.72;5114032;28;20192;-78
2022/04/27 08:40:25;;;;;;;19.95;18.95;;;;;;;-141.02;71.84;82859.91;5113033;28;20197;-80
2022/04/27 08:42:53;;;;;;;20.67;19.67;;;;;;;-141.02;71.15;82832.72;5113207;28;20721;-75
2022/04/27 08:45:21;;;;;;;20.25;19.25;;;;;;;-141.02;69.85;82817.19;5113015;28;20229;-79
2022/04/27 08:47:49;;;;;;;20.45;19.45;;;;;;;-141.02;68.20;82813.28;5112742;28;20235;-75
2022/04/27 08:50:18;;;;;;;20.10;19.10;;;;;;;-141.02;71.89;82780.28;5113055;28;20189;-74
2022/04/27 08:52:47;;;;;;;20.10;19.10;;;;;;;-141.02;70.07;82821.06;5113148;28;20571;-76
2022/04/27 08:55:15;;;;;;;20.40;19.40;;;;;;;-141.02;69.31;84435.59;5112623;28;20239;-76
2022/04/27 08:57:43;;;;;;;20.00;19.00;;;;;;;-141.02;66.59;82770.56;5112900;28;20201;-74
2022/04/27 09:00:12;;;;;;;20.85;19.75;;;;;;;-141.02;67.26;82716.16;5112914;28;20201;-73
2022/04/27 09:02:40;;;;;;;21.20;20.10;;;;;;;-141.02;65.35;82655.97;5112524;28;20297;-73
2022/04/27 09:05:11;;;;;;;20.58;19.48;;;;;;;-141.02;65.79;82661.78;5113168;28;20690;-76
2022/04/27 09:07:40;;;;;;;20.23;19.13;;;;;;;-141.02;70.07;82729.78;5112970;28;20220;-73
2022/04/27 09:10:11;;;;;;;19.95;18.85;;;;;;;-141.02;67.67;82696.75;5112493;28;20193;-74
2022/04/27 09:12:45;;;;;;;21.08;19.88;;;;;;;-141.02;65.41;82646.25;5112551;28;20223;-77
2022/04/27 09:15:13;;;;;;;21.05;19.85;;;;;;;-141.02;66.85;82681.22;5112841;28;20257;-76
2022/04/27 09:23:21;;;;;;;20.65;19.45;;;;;;;-141.02;62.96;82551.06;5117024;28;20188;-78
2022/04/27 09:25:51;;;;;;;20.65;19.45;;;;;;;-141.02;63.41;82568.56;5116555;28;20802;-74
2022/04/27 09:28:19;;;;;;;20.30;19.10;;;;;;;-141.02;62.58;82514.16;5116951;28;20188;-87
2022/04/27 09:30:48;;;;;;;19.67;18.58;;;;;;;-141.02;62.22;82506.41;5116742;28;20569;-76
2022/04/27 09:33:31;;;;;;;19.80;18.70;;;;;;;-141.02;60.24;82453.97;5117104;27;20193;-73
2022/04/27 09:35:59;;;;;;;20.42;19.23;;;;;;;-141.02;61.36;82420.94;5116583;28;20192;-79
2022/04/27 09:38:27;;;;;;;20.10;19.00;;;;;;;-141.02;61.90;82391.81;5117109;28;20275;-80
2022/04/27 09:40:57;;;;;;;20.13;19.02;;;;;;;-141.02;61.38;82424.84;5116523;28;20193;-80
2022/04/27 09:43:42;;;;;;;20.27;19.08;;;;;;;-141.02;61.59;82382.09;5116973;28;20192;-79
2022/04/27 09:46:17;;;;;;;19.98;18.88;;;;;;;-141.02;58.94;82333.56;5116720;28;20221;-79
2022/04/27 09:48:47;;;;;;;20.58;19.38;;;;;;;-141.02;59.09;82347.16;5117367;28;20227;-78
2022/04/27 09:51:14;;;;;;;20.55;19.45;;;;;;;-141.02;60.69;82329.66;5118002;28;20283;-73
2022/04/27 09:53:43;;;;;;;20.25;19.15;;;;;;;-141.02;58.83;82246.16;5116092;28;20189;-73
2022/04/27 09:56:13;;;;;;;20.17;19.08;;;;;;;-141.02;59.19;82269.47;5116587;28;20292;-74
2022/04/27 09:58:47;;;;;;;19.95;18.85;;;;;;;-141.02;58.63;82189.84;5116408;28;20189;-84
2022/04/27 10:01:17;;;;;;;20.00;18.90;;;;;;;-141.02;58.49;82191.78;5116337;28;20189;-73
2022/04/27 10:03:49;;;;;;;19.40;18.33;;;;;;;-141.02;57.89;82164.59;5115807;28;20233;-73
2022/04/27 10:06:16;;;;;;;19.88;18.77;;;;;;;-141.02;58.53;82184.00;5116112;28;20212;-80
2022/04/27 10:08:45;;;;;;;19.88;18.77;;;;;;;-141.02;58.57;82226.72;5116147;28;20231;-82
2022/04/27 10:11:14;;;;;;;19.48;18.38;;;;;;;-141.02;58.53;82172.34;5116189;28;20579;-77
2022/04/27 10:13:42;;;;;;;19.55;18.45;;;;;;;-141.02;58.18;82151.00;5115937;28;20193;-71
2022/04/27 10:16:10;;;;;;;20.00;18.90;;;;;;;-141.02;60.19;82137.41;5116466;28;20254;-83
2022/04/27 10:18:37;;;;;;;19.75;18.65;;;;;;;-141.02;58.03;82102.44;5115877;28;20253;-76
2022/04/27 10:21:05;;;;;;;19.95;18.85;;;;;;;-141.02;58.44;82077.19;5116176;28;20189;-76
2022/04/27 10:23:32;;;;;;;19.85;18.75;;;;;;;-141.02;59.07;82067.47;5116417;28;20281;-75
2022/04/27 10:26:16;;;;;;;19.98;18.88;;;;;;;-141.02;56.51;82044.19;5116362;28;20228;-75
2022/04/27 10:28:49;;;;;;;20.10;19.00;;;;;;;-141.02;59.17;82028.66;5116745;28;20208;-85
2022/04/27 10:31:49;;;;;;;19.63;18.52;;;;;;;-141.02;58.23;82044.19;5115683;28;20205;-76
2022/04/27 10:34:19;;;;;;;19.63;18.52;;;;;;;-141.02;57.17;82022.81;5114848;28;20189;-76
2022/04/27 10:36:47;;;;;;;19.58;18.48;;;;;;;-141.02;58.77;82009.22;5116332;28;20192;-75
2022/04/27 10:39:20;;;;;;;21.08;19.77;;;;;;;-141.02;55.87;81945.13;5115553;28;20197;-86
2022/04/27 10:41:56;;;;;;;19.65;18.55;;;;;;;-141.02;56.19;81958.72;5115786;28;20648;-84
2022/04/27 10:45:10;;;;;;;19.48;18.38;;;;;;;-141.02;58.51;81982.03;5115463;28;20238;-84
2022/04/27 10:47:41;;;;;;;19.73;18.63;;;;;;;-141.02;57.49;81966.50;5090992;27;20278;-86
2022/04/27 10:50:25;;;;;;;19.55;18.55;;;;;;;-141.02;57.57;81947.09;5115920;28;20289;-81
2022/04/27 10:52:55;;;;;;;19.98;18.88;;;;;;;-141.02;56.98;81970.38;5115337;28;20201;-85
2022/04/27 10:55:45;;;;;;;19.88;18.77;;;;;;;-141.02;57.46;81947.09;5116749;28;20288;-78
2022/04/27 10:58:16;;;;;;;19.67;18.58;;;;;;;-141.02;57.20;81867.47;5115605;28;20189;-84
2022/04/27 11:01:20;;;;;;;19.90;18.80;;;;;;;-141.02;55.83;81846.09;5115130;28;20186;-79
2022/04/27 11:04:06;;;;;;;19.73;18.63;;;;;;;-141.02;54.76;81737.34;5093145;28;20224;-77
2022/04/27 11:07:19;;;;;;;19.63;18.52;;;;;;;-141.02;55.98;81752.91;5116263;28;20216;-83
2022/04/27 11:10:10;;;;;;;19.20;18.20;;;;;;;-141.02;54.47;81719.88;5096018;28;20199;-84
2022/04/27 11:12:38;;;;;;;19.63;18.55;;;;;;;-141.02;58.31;81927.66;5115439;28;20272;-78
2022/04/27 11:15:10;;;;;;;19.27;18.27;;;;;;;-141.02;56.45;81842.22;5115345;28;20201;-75
2022/04/27 11:17:38;;;;;;;19.38;18.38;;;;;;;-141.02;55.37;81741.25;5115134;28;20201;-86
2022/04/27 11:20:07;;;;;;;19.08;18.08;;;;;;;-141.02;55.18;81710.19;5114930;28;20227;-76
2022/04/27 11:22:39;;;;;;;19.40;18.40;;;;;;;-141.02;54.24;81659.69;5115051;28;20624;-84
2022/04/27 11:25:08;;;;;;;19.25;18.25;;;;;;;-141.02;53.08;81570.38;5115586;28;20271;-87